Time;durP1;ratioP1;P1;durP2;ratioP2;P2;SDS_P1;SDS_P2;PMS_P1;PMS_P2;Temp;Humidity;BMP_temperature;BMP_pressure;BME280_temperature;BME280_humidity;BME280_pressure;Samples;Min_cycle;Max_cycle;Signal;HPM_P1;HPM_P2
2023/03/15 00:02:02;;;;;;;6.03;2.72;;;;;;;;;;5103278;28;20431;-69
2023/03/15 00:04:28;;;;;;;2.55;2.42;;;;;;;;;;5103223;28;20224;-69
2023/03/15 00:06:55;;;;;;;2.63;2.42;;;;;;;;;;5103054;28;20213;-69
2023/03/15 00:09:23;;;;;;;3.45;3.13;;;;;;;;;;5102899;28;20469;-69
2023/03/15 00:11:50;;;;;;;3.63;2.97;;;;;;;;;;5102986;28;20195;-69
2023/03/15 00:14:17;;;;;;;3.08;2.83;;;;;;;;;;5102852;28;20199;-69
2023/03/15 00:16:43;;;;;;;3.00;2.80;;;;;;;;;;5102805;28;20200;-69
2023/03/15 00:19:10;;;;;;;3.10;2.70;;;;;;;;;;5102781;28;20308;-69
2023/03/15 00:21:36;;;;;;;3.10;2.90;;;;;;;;;;5102976;28;20241;-69
2023/03/15 00:24:02;;;;;;;3.35;2.50;;;;;;;;;;5102694;28;20212;-69
2023/03/15 00:26:28;;;;;;;4.63;3.30;;;;;;;;;;5102875;28;20218;-69
2023/03/15 00:28:56;;;;;;;3.40;2.85;;;;;;;;;;5102775;28;20539;-69
2023/03/15 00:31:23;;;;;;;3.00;2.80;;;;;;;;;;5102848;28;20195;-69
2023/03/15 00:33:52;;;;;;;3.70;3.40;;;;;;;;;;5102840;28;20196;-69
2023/03/15 00:36:22;;;;;;;3.80;3.60;;;;;;;;;;5102610;28;20203;-69
2023/03/15 00:38:48;;;;;;;3.83;3.53;;;;;;;;;;5102689;28;20195;-69
2023/03/15 00:41:16;;;;;;;3.80;3.60;;;;;;;;;;5102389;28;20249;-69
2023/03/15 00:43:42;;;;;;;4.25;4.05;;;;;;;;;;5102254;28;20272;-69
2023/03/15 00:46:10;;;;;;;5.43;4.32;;;;;;;;;;5102526;28;20225;-69
2023/03/15 00:48:37;;;;;;;4.20;3.90;;;;;;;;;;5102581;28;20548;-69
2023/03/15 00:51:04;;;;;;;4.40;4.05;;;;;;;;;;5102302;28;20249;-69
2023/03/15 00:53:31;;;;;;;4.95;4.55;;;;;;;;;;5102280;28;20428;-69
2023/03/15 00:55:57;;;;;;;5.07;4.53;;;;;;;;;;5102480;28;20196;-69
2023/03/15 00:58:23;;;;;;;4.80;4.40;;;;;;;;;;5102510;28;20204;-69
2023/03/15 01:00:50;;;;;;;5.25;4.57;;;;;;;;;;5102433;28;20218;-69
2023/03/15 01:03:18;;;;;;;4.57;4.18;;;;;;;;;;5102051;28;20218;-69
2023/03/15 01:05:44;;;;;;;4.80;4.57;;;;;;;;;;5102243;28;20370;-69
2023/03/15 01:08:10;;;;;;;5.80;4.32;;;;;;;;;;5102058;28;20215;-69
2023/03/15 01:10:37;;;;;;;5.60;4.57;;;;;;;;;;5101983;28;20207;-69
2023/03/15 01:13:03;;;;;;;4.85;4.45;;;;;;;;;;5105522;28;20244;-69
2023/03/15 01:15:29;;;;;;;7.35;5.53;;;;;;;;;;5106579;28;20195;-69
2023/03/15 01:17:55;;;;;;;5.25;4.75;;;;;;;;;;5106465;28;20203;-69
2023/03/15 01:20:23;;;;;;;4.35;3.97;;;;;;;;;;5106177;28;20206;-69
2023/03/15 01:22:49;;;;;;;5.70;5.20;;;;;;;;;;5105994;28;20234;-69
2023/03/15 01:25:15;;;;;;;7.80;5.07;;;;;;;;;;5105968;28;20541;-69
2023/03/15 01:27:42;;;;;;;5.28;4.80;;;;;;;;;;5106157;28;20261;-69
2023/03/15 01:30:09;;;;;;;6.65;4.80;;;;;;;;;;5105932;28;20249;-69
2023/03/15 01:32:35;;;;;;;7.57;4.93;;;;;;;;;;5106106;28;20196;-69
2023/03/15 01:35:01;;;;;;;6.38;4.85;;;;;;;;;;5105848;28;20368;-69
2023/03/15 01:37:29;;;;;;;5.70;5.15;;;;;;;;;;5105737;28;20200;-69
2023/03/15 01:39:55;;;;;;;7.15;4.65;;;;;;;;;;5105755;28;20225;-69
2023/03/15 01:42:21;;;;;;;4.68;4.35;;;;;;;;;;5106100;28;20195;-69
2023/03/15 01:44:49;;;;;;;4.90;4.35;;;;;;;;;;5105721;28;20257;-69
2023/03/15 01:47:15;;;;;;;5.68;4.47;;;;;;;;;;5105589;28;20262;-69
2023/03/15 01:49:42;;;;;;;4.85;4.35;;;;;;;;;;5105395;28;20233;-69
2023/03/15 01:52:11;;;;;;;6.32;4.38;;;;;;;;;;5105523;28;20222;-69
2023/03/15 01:54:41;;;;;;;8.52;4.18;;;;;;;;;;5105997;28;20192;-69
2023/03/15 01:57:08;;;;;;;3.70;3.50;;;;;;;;;;5105632;28;20570;-69
2023/03/15 01:59:36;;;;;;;4.22;3.72;;;;;;;;;;5105588;28;20355;-69
2023/03/15 02:02:04;;;;;;;7.97;4.07;;;;;;;;;;5105522;28;20222;-69
2023/03/15 02:04:32;;;;;;;5.80;3.65;;;;;;;;;;5105243;28;20233;-69
2023/03/15 02:07:01;;;;;;;6.10;4.05;;;;;;;;;;5105214;28;20200;-69
2023/03/15 02:09:30;;;;;;;6.55;3.90;;;;;;;;;;5105205;28;20511;-69
2023/03/15 02:11:58;;;;;;;6.18;4.25;;;;;;;;;;5105307;28;20402;-69
2023/03/15 02:14:25;;;;;;;4.65;4.13;;;;;;;;;;5105160;28;20195;-69
2023/03/15 02:16:52;;;;;;;5.78;4.47;;;;;;;;;;5104897;28;20250;-69
2023/03/15 02:19:26;;;;;;;5.07;3.47;;;;;;;;;;5105444;28;20241;-69
2023/03/15 02:21:57;;;;;;;5.00;3.33;;;;;;;;;;5105427;28;20199;-69
2023/03/15 02:24:26;;;;;;;5.38;3.10;;;;;;;;;;5104562;28;20220;-69
2023/03/15 02:26:54;;;;;;;4.10;2.22;;;;;;;;;;5104936;28;20278;-69
2023/03/15 02:29:23;;;;;;;5.28;2.60;;;;;;;;;;5104558;28;20241;-69
2023/03/15 02:31:49;;;;;;;7.25;2.50;;;;;;;;;;5104720;28;20202;-69
2023/03/15 02:34:16;;;;;;;3.00;2.22;;;;;;;;;;5105000;28;20192;-69
2023/03/15 02:36:42;;;;;;;8.23;2.15;;;;;;;;;;5104965;28;20195;-69
2023/03/15 02:39:15;;;;;;;5.50;2.58;;;;;;;;;;5104475;28;20196;-69
2023/03/15 02:41:43;;;;;;;3.53;1.95;;;;;;;;;;5104672;28;20196;-69
2023/03/15 02:44:11;;;;;;;5.15;2.25;;;;;;;;;;5104417;28;20538;-69
2023/03/15 02:46:38;;;;;;;4.38;2.40;;;;;;;;;;5104713;28;20196;-69
2023/03/15 02:49:07;;;;;;;8.05;2.45;;;;;;;;;;5104489;28;20282;-69
2023/03/15 02:51:36;;;;;;;7.10;2.20;;;;;;;;;;5104538;28;20285;-69
2023/03/15 02:54:02;;;;;;;7.45;2.03;;;;;;;;;;5103916;28;20191;-69
2023/03/15 02:56:28;;;;;;;3.47;2.00;;;;;;;;;;5104592;28;20196;-69
2023/03/15 02:58:55;;;;;;;5.60;2.20;;;;;;;;;;5104228;28;20195;-69
2023/03/15 03:01:21;;;;;;;3.97;2.20;;;;;;;;;;5104377;28;20200;-69
2023/03/15 03:03:48;;;;;;;1.92;1.83;;;;;;;;;;5104139;28;20216;-69
2023/03/15 03:06:15;;;;;;;6.53;1.92;;;;;;;;;;5103998;28;20195;-69
2023/03/15 03:08:46;;;;;;;4.78;2.28;;;;;;;;;;5103916;28;20214;-69
2023/03/15 03:11:12;;;;;;;3.38;2.30;;;;;;;;;;5104124;28;20199;-69
2023/03/15 03:13:39;;;;;;;8.43;2.08;;;;;;;;;;5104117;28;20541;-69
2023/03/15 03:16:05;;;;;;;2.67;2.10;;;;;;;;;;5104013;28;20387;-69
2023/03/15 03:18:34;;;;;;;7.47;2.20;;;;;;;;;;5104452;28;20233;-69
2023/03/15 03:21:02;;;;;;;4.32;1.98;;;;;;;;;;5103603;28;20570;-68
2023/03/15 03:23:29;;;;;;;2.97;1.70;;;;;;;;;;5103882;28;20228;-69
2023/03/15 03:25:56;;;;;;;3.72;1.88;;;;;;;;;;5103999;28;20266;-69
2023/03/15 03:28:23;;;;;;;5.20;1.92;;;;;;;;;;5103550;28;20216;-69
2023/03/15 03:30:49;;;;;;;6.40;1.52;;;;;;;;;;5103556;28;20242;-69
2023/03/15 03:33:15;;;;;;;4.82;1.77;;;;;;;;;;5103641;28;20200;-69
2023/03/15 03:35:42;;;;;;;5.20;1.33;;;;;;;;;;5102848;28;20246;-69
2023/03/15 03:38:10;;;;;;;2.85;1.58;;;;;;;;;;5103550;28;20195;-69
2023/03/15 03:40:36;;;;;;;6.95;1.80;;;;;;;;;;5103417;28;20421;-69
2023/03/15 03:43:02;;;;;;;2.67;1.85;;;;;;;;;;5103536;28;20222;-69
2023/03/15 03:45:29;;;;;;;6.15;1.80;;;;;;;;;;5103334;28;20220;-69
2023/03/15 03:47:55;;;;;;;3.80;1.58;;;;;;;;;;5103302;28;20256;-69
2023/03/15 03:50:21;;;;;;;3.03;1.50;;;;;;;;;;5103240;28;20418;-69
2023/03/15 03:52:47;;;;;;;1.83;1.50;;;;;;;;;;5103646;28;20200;-69
2023/03/15 03:55:15;;;;;;;3.17;2.00;;;;;;;;;;5103285;28;20244;-69
2023/03/15 03:57:41;;;;;;;1.60;1.50;;;;;;;;;;5103257;28;20571;-69
2023/03/15 04:00:08;;;;;;;4.95;1.70;;;;;;;;;;5102895;28;20218;-69
2023/03/15 04:02:35;;;;;;;3.47;2.00;;;;;;;;;;5103049;28;20203;-69
2023/03/15 04:05:01;;;;;;;5.25;1.67;;;;;;;;;;5103170;28;20219;-69
2023/03/15 04:07:27;;;;;;;4.25;1.80;;;;;;;;;;5103033;28;20234;-69
2023/03/15 04:09:54;;;;;;;1.90;1.70;;;;;;;;;;5102844;28;20208;-69
2023/03/15 04:12:21;;;;;;;5.88;1.95;;;;;;;;;;5102923;28;20204;-69
2023/03/15 04:14:48;;;;;;;3.13;1.70;;;;;;;;;;5103110;28;20192;-69
2023/03/15 04:17:14;;;;;;;5.32;1.95;;;;;;;;;;5102671;28;20202;-69
2023/03/15 04:19:40;;;;;;;7.45;2.08;;;;;;;;;;5102949;28;20199;-69
2023/03/15 04:22:09;;;;;;;3.17;1.73;;;;;;;;;;5102828;28;20196;-69
2023/03/15 04:24:35;;;;;;;3.10;1.60;;;;;;;;;;5102668;28;20211;-69
2023/03/15 04:27:02;;;;;;;5.55;2.15;;;;;;;;;;5102524;28;20195;-69
2023/03/15 04:29:30;;;;;;;6.63;2.00;;;;;;;;;;5102579;28;20203;-69
2023/03/15 04:32:00;;;;;;;9.55;2.20;;;;;;;;;;5102513;28;20240;-69
2023/03/15 04:34:27;;;;;;;3.95;1.98;;;;;;;;;;5102655;28;20192;-69
2023/03/15 04:36:53;;;;;;;6.80;3.20;;;;;;;;;;5102727;28;20196;-69
2023/03/15 04:39:19;;;;;;;4.75;2.35;;;;;;;;;;5102263;28;20495;-69
2023/03/15 04:41:46;;;;;;;4.68;2.35;;;;;;;;;;5102490;28;20515;-69
2023/03/15 04:44:15;;;;;;;3.55;2.17;;;;;;;;;;5102402;28;20246;-69
2023/03/15 04:46:43;;;;;;;3.75;2.15;;;;;;;;;;5102304;28;20195;-69
2023/03/15 04:49:09;;;;;;;5.10;2.00;;;;;;;;;;5102419;28;20217;-69
2023/03/15 04:51:35;;;;;;;3.58;1.80;;;;;;;;;;5102323;28;20372;-69
2023/03/15 04:54:02;;;;;;;1.95;1.67;;;;;;;;;;5102845;28;20529;-69
2023/03/15 04:56:28;;;;;;;2.97;2.35;;;;;;;;;;5102361;28;20196;-69
2023/03/15 04:58:55;;;;;;;7.63;2.10;;;;;;;;;;5102297;28;20316;-69
2023/03/15 05:01:21;;;;;;;12.82;6.45;;;;;;;;;;5102605;28;20518;-69
2023/03/15 05:03:49;;;;;;;9.50;3.63;;;;;;;;;;5102491;28;20216;-69
2023/03/15 05:06:15;;;;;;;6.85;3.22;;;;;;;;;;5102495;28;20235;-69
2023/03/15 05:08:44;;;;;;;9.02;4.00;;;;;;;;;;5102286;28;20541;-69
2023/03/15 05:11:10;;;;;;;9.40;6.00;;;;;;;;;;5102197;28;20221;-69
2023/03/15 05:13:36;;;;;;;12.88;5.60;;;;;;;;;;5102017;28;20267;-69
2023/03/15 05:16:02;;;;;;;9.15;5.85;;;;;;;;;;5102310;28;20237;-69
2023/03/15 05:18:29;;;;;;;12.27;5.30;;;;;;;;;;5102269;28;20199;-69
2023/03/15 05:20:57;;;;;;;5.50;4.15;;;;;;;;;;5102095;28;20245;-69
2023/03/15 05:23:23;;;;;;;10.68;6.38;;;;;;;;;;5102412;28;20207;-69
2023/03/15 05:25:52;;;;;;;9.02;5.05;;;;;;;;;;5102486;28;20238;-69
2023/03/15 05:28:19;;;;;;;9.10;3.58;;;;;;;;;;5102005;28;20436;-69
2023/03/15 05:30:45;;;;;;;5.55;3.45;;;;;;;;;;5102441;28;20455;-70
2023/03/15 05:33:11;;;;;;;9.50;3.88;;;;;;;;;;5102238;28;20253;-70
2023/03/15 05:35:38;;;;;;;6.07;4.10;;;;;;;;;;5102681;28;20206;-69
2023/03/15 05:38:05;;;;;;;4.85;3.25;;;;;;;;;;5102311;28;20301;-69
2023/03/15 05:40:32;;;;;;;6.95;3.15;;;;;;;;;;5101931;28;20219;-69
2023/03/15 05:42:58;;;;;;;5.05;2.70;;;;;;;;;;5102390;28;20207;-69
2023/03/15 05:45:24;;;;;;;4.43;2.88;;;;;;;;;;5102409;28;20227;-69
2023/03/15 05:47:50;;;;;;;4.25;2.75;;;;;;;;;;5102256;28;20241;-68
2023/03/15 05:50:17;;;;;;;8.88;2.95;;;;;;;;;;5102156;28;20427;-68
2023/03/15 05:52:43;;;;;;;9.45;3.58;;;;;;;;;;5102147;28;20224;-68
2023/03/15 05:55:11;;;;;;;3.95;2.78;;;;;;;;;;5102128;28;20437;-68
2023/03/15 05:57:37;;;;;;;7.93;2.90;;;;;;;;;;5103002;28;20366;-68
2023/03/15 06:00:06;;;;;;;6.57;3.38;;;;;;;;;;5106001;28;20418;-68
2023/03/15 06:02:32;;;;;;;9.15;3.55;;;;;;;;;;5106179;28;20195;-69
2023/03/15 06:04:58;;;;;;;4.30;2.85;;;;;;;;;;5106057;28;20269;-69
2023/03/15 06:07:24;;;;;;;4.63;2.58;;;;;;;;;;5106288;28;20196;-69
2023/03/15 06:09:51;;;;;;;8.80;3.22;;;;;;;;;;5105654;28;20245;-69
2023/03/15 06:12:19;;;;;;;6.13;2.60;;;;;;;;;;5105810;28;20510;-69
2023/03/15 06:14:46;;;;;;;4.88;2.85;;;;;;;;;;5105632;28;20263;-69
2023/03/15 06:17:12;;;;;;;5.53;2.72;;;;;;;;;;5105525;28;20196;-69
2023/03/15 06:19:39;;;;;;;4.40;2.67;;;;;;;;;;5105186;28;20233;-69
2023/03/15 06:22:05;;;;;;;5.28;2.42;;;;;;;;;;5105395;28;20241;-69
2023/03/15 06:24:31;;;;;;;2.80;2.63;;;;;;;;;;5105050;28;20196;-69
2023/03/15 06:26:57;;;;;;;8.15;3.08;;;;;;;;;;5105323;28;20230;-69
2023/03/15 06:29:25;;;;;;;6.32;3.00;;;;;;;;;;5105493;28;20196;-69
2023/03/15 06:31:52;;;;;;;4.05;3.58;;;;;;;;;;5105201;28;20246;-69
2023/03/15 06:34:19;;;;;;;3.13;2.70;;;;;;;;;;5105139;28;20196;-69
2023/03/15 06:36:46;;;;;;;4.85;2.85;;;;;;;;;;5104838;28;20453;-69
2023/03/15 06:39:12;;;;;;;5.13;2.90;;;;;;;;;;5104782;28;20203;-69
2023/03/15 06:41:40;;;;;;;8.48;2.88;;;;;;;;;;5104954;28;20202;-69
2023/03/15 06:44:06;;;;;;;5.18;3.67;;;;;;;;;;5105158;28;20196;-69
2023/03/15 06:46:34;;;;;;;6.72;3.53;;;;;;;;;;5104957;28;20409;-69
2023/03/15 06:49:00;;;;;;;8.15;3.70;;;;;;;;;;5104866;28;20196;-69
2023/03/15 06:51:27;;;;;;;7.55;3.38;;;;;;;;;;5104764;28;20241;-69
2023/03/15 06:53:53;;;;;;;3.30;3.00;;;;;;;;;;5104920;28;20253;-69
2023/03/15 06:56:19;;;;;;;10.05;3.78;;;;;;;;;;5104812;28;20192;-69
2023/03/15 06:58:45;;;;;;;6.70;3.58;;;;;;;;;;5105076;28;20201;-69
2023/03/15 07:01:12;;;;;;;10.85;3.58;;;;;;;;;;5104721;28;20249;-69
2023/03/15 07:03:39;;;;;;;8.48;3.25;;;;;;;;;;5104713;28;20196;-69
2023/03/15 07:06:06;;;;;;;5.40;3.22;;;;;;;;;;5104378;28;20216;-69
2023/03/15 07:08:32;;;;;;;4.90;3.28;;;;;;;;;;5104480;28;20324;-69
2023/03/15 07:10:58;;;;;;;4.82;2.88;;;;;;;;;;5096723;28;20192;-70
2023/03/15 07:13:25;;;;;;;6.97;3.45;;;;;;;;;;5090674;28;20211;-70
2023/03/15 07:15:52;;;;;;;8.25;3.83;;;;;;;;;;5090300;28;20208;-70
2023/03/15 07:18:18;;;;;;;10.38;3.08;;;;;;;;;;5090032;28;20499;-69
2023/03/15 07:20:46;;;;;;;7.18;3.75;;;;;;;;;;5094592;28;20212;-61
2023/03/15 07:23:12;;;;;;;10.60;3.15;;;;;;;;;;5092062;28;20215;-61
2023/03/15 07:25:39;;;;;;;6.32;2.75;;;;;;;;;;5098588;28;20568;-60
2023/03/15 07:28:05;;;;;;;6.30;2.58;;;;;;;;;;5098269;28;20290;-60
2023/03/15 07:30:31;;;;;;;6.75;2.85;;;;;;;;;;5097756;28;20207;-60
2023/03/15 07:32:57;;;;;;;6.28;2.83;;;;;;;;;;5092396;28;20212;-60
2023/03/15 07:35:23;;;;;;;6.85;2.90;;;;;;;;;;5094061;28;20411;-60
2023/03/15 07:37:51;;;;;;;6.88;2.97;;;;;;;;;;5094114;28;20220;-59
2023/03/15 07:40:17;;;;;;;9.27;3.03;;;;;;;;;;5089402;28;20212;-59
2023/03/15 07:42:44;;;;;;;7.07;2.97;;;;;;;;;;5096171;28;20226;-58
2023/03/15 07:45:11;;;;;;;6.43;3.17;;;;;;;;;;5096769;28;20569;-59
2023/03/15 07:47:37;;;;;;;6.97;2.60;;;;;;;;;;5096825;28;20212;-60
2023/03/15 07:50:04;;;;;;;9.35;2.22;;;;;;;;;;5095604;28;20215;-59
2023/03/15 07:52:30;;;;;;;10.02;2.72;;;;;;;;;;5096606;28;20257;-59
2023/03/15 07:54:58;;;;;;;5.43;2.67;;;;;;;;;;5095835;28;20204;-59
2023/03/15 07:57:24;;;;;;;6.63;2.30;;;;;;;;;;5096137;28;20207;-61
2023/03/15 07:59:51;;;;;;;9.88;2.22;;;;;;;;;;5096540;28;20276;-59
2023/03/15 08:02:17;;;;;;;4.60;2.08;;;;;;;;;;5095452;28;20237;-60
2023/03/15 08:04:44;;;;;;;8.65;2.20;;;;;;;;;;5096590;28;20257;-60
2023/03/15 08:07:10;;;;;;;3.85;1.33;;;;;;;;;;5096110;28;20255;-60
2023/03/15 08:09:38;;;;;;;5.13;2.20;;;;;;;;;;5095494;28;20211;-60
2023/03/15 08:12:06;;;;;;;4.38;2.05;;;;;;;;;;5096307;28;20203;-59
2023/03/15 08:14:32;;;;;;;7.18;1.90;;;;;;;;;;5095375;28;20220;-59
2023/03/15 08:16:59;;;;;;;5.75;1.95;;;;;;;;;;5090546;28;20215;-59
2023/03/15 08:19:25;;;;;;;7.28;1.70;;;;;;;;;;5092630;28;20509;-60
2023/03/15 08:21:52;;;;;;;6.90;2.40;;;;;;;;;;5088457;28;20207;-60
2023/03/15 08:24:18;;;;;;;6.22;1.70;;;;;;;;;;5095117;28;20211;-60
2023/03/15 08:26:45;;;;;;;9.88;1.70;;;;;;;;;;5094661;28;20273;-60
2023/03/15 08:29:12;;;;;;;2.55;1.77;;;;;;;;;;5095102;28;20228;-60
2023/03/15 08:31:39;;;;;;;8.43;2.00;;;;;;;;;;5095573;28;20395;-60
2023/03/15 08:34:05;;;;;;;5.57;1.58;;;;;;;;;;5092524;28;20207;-60
2023/03/15 08:36:32;;;;;;;3.63;1.95;;;;;;;;;;5094589;28;20222;-59
2023/03/15 08:38:58;;;;;;;5.13;1.50;;;;;;;;;;5094423;28;20537;-59
2023/03/15 08:41:24;;;;;;;4.10;1.60;;;;;;;;;;5094639;28;20218;-59
2023/03/15 08:43:50;;;;;;;8.02;2.00;;;;;;;;;;5095541;28;20370;-59
2023/03/15 08:46:20;;;;;;;5.22;1.80;;;;;;;;;;5092110;28;20603;-59
2023/03/15 08:48:46;;;;;;;5.63;1.63;;;;;;;;;;5082356;28;20212;-60
2023/03/15 08:51:13;;;;;;;5.95;1.75;;;;;;;;;;5090540;28;20352;-62
2023/03/15 08:53:39;;;;;;;4.20;1.80;;;;;;;;;;5090540;28;20214;-62
2023/03/15 08:56:06;;;;;;;6.35;2.03;;;;;;;;;;5088061;28;20388;-62
2023/03/15 08:58:33;;;;;;;4.03;1.65;;;;;;;;;;5092064;28;20241;-62
2023/03/15 09:00:59;;;;;;;2.70;1.50;;;;;;;;;;5095334;28;20211;-62
2023/03/15 09:03:27;;;;;;;6.85;2.03;;;;;;;;;;5094153;28;20207;-62
2023/03/15 09:05:55;;;;;;;5.13;1.95;;;;;;;;;;5095126;28;20230;-62
2023/03/15 09:08:24;;;;;;;3.42;1.50;;;;;;;;;;5094891;28;20212;-62
2023/03/15 09:10:53;;;;;;;3.17;1.70;;;;;;;;;;5094735;28;20223;-61
2023/03/15 09:13:19;;;;;;;3.33;1.63;;;;;;;;;;5095501;28;20325;-62
2023/03/15 09:15:45;;;;;;;6.35;1.52;;;;;;;;;;5094558;28;20261;-62
2023/03/15 09:18:12;;;;;;;3.83;1.40;;;;;;;;;;5095847;28;20269;-62
2023/03/15 09:20:40;;;;;;;5.75;1.67;;;;;;;;;;5095316;28;20206;-62
2023/03/15 09:23:06;;;;;;;4.10;1.33;;;;;;;;;;5095323;28;20211;-62
2023/03/15 09:25:32;;;;;;;3.83;1.77;;;;;;;;;;5093136;28;20630;-60
2023/03/15 09:27:59;;;;;;;6.00;1.83;;;;;;;;;;5094507;28;20228;-60
2023/03/15 09:30:25;;;;;;;3.00;1.55;;;;;;;;;;5094022;28;20466;-59
2023/03/15 09:32:51;;;;;;;2.80;1.33;;;;;;;;;;5095337;28;20257;-59
2023/03/15 09:35:18;;;;;;;2.75;1.40;;;;;;;;;;5098086;28;20211;-59
2023/03/15 09:37:46;;;;;;;3.13;1.58;;;;;;;;;;5099700;28;20212;-60
2023/03/15 09:40:15;;;;;;;3.60;1.67;;;;;;;;;;5098215;28;20532;-60
2023/03/15 09:42:52;;;;;;;3.53;1.50;;;;;;;;;;5097729;28;20276;-60
2023/03/15 09:45:23;;;;;;;6.07;1.50;;;;;;;;;;5098637;28;20398;-60
2023/03/15 09:47:54;;;;;;;2.70;1.30;;;;;;;;;;5097860;28;20473;-60
2023/03/15 09:50:22;;;;;;;3.55;1.15;;;;;;;;;;5096677;28;20528;-60
2023/03/15 09:52:51;;;;;;;11.13;1.45;;;;;;;;;;5097259;28;20215;-60
2023/03/15 09:55:20;;;;;;;2.40;1.40;;;;;;;;;;5097634;28;20471;-60
2023/03/15 09:57:48;;;;;;;3.17;1.38;;;;;;;;;;5096961;28;20216;-59
2023/03/15 10:00:16;;;;;;;1.67;1.13;;;;;;;;;;5097654;28;20241;-59
2023/03/15 10:02:47;;;;;;;5.03;1.27;;;;;;;;;;5097600;28;20211;-59
2023/03/15 10:05:17;;;;;;;2.50;1.00;;;;;;;;;;5098390;28;20220;-59
2023/03/15 10:07:44;;;;;;;5.15;1.45;;;;;;;;;;5097912;28;20509;-59
2023/03/15 10:10:15;;;;;;;2.20;1.30;;;;;;;;;;5098360;28;21708;-59
2023/03/15 10:12:49;;;;;;;4.22;1.33;;;;;;;;;;5098237;28;20249;-59
2023/03/15 10:15:21;;;;;;;3.40;1.42;;;;;;;;;;5098052;28;20258;-59
2023/03/15 10:17:51;;;;;;;3.67;1.20;;;;;;;;;;5097279;28;20214;-59
2023/03/15 10:20:20;;;;;;;6.82;1.30;;;;;;;;;;5098429;28;20203;-59
2023/03/15 10:22:50;;;;;;;2.88;1.10;;;;;;;;;;5097765;28;20469;-59
2023/03/15 10:25:17;;;;;;;2.65;1.27;;;;;;;;;;5097098;28;20471;-59
2023/03/15 10:27:47;;;;;;;5.00;1.25;;;;;;;;;;5096779;28;20239;-59
2023/03/15 10:30:15;;;;;;;4.88;1.40;;;;;;;;;;5098196;28;20212;-59
2023/03/15 10:32:43;;;;;;;5.82;1.60;;;;;;;;;;5097181;28;20212;-60
2023/03/15 10:35:13;;;;;;;3.03;1.20;;;;;;;;;;5096396;28;20584;-59
2023/03/15 10:37:41;;;;;;;4.97;1.50;;;;;;;;;;5086098;28;20230;-58
2023/03/15 10:40:14;;;;;;;2.47;1.35;;;;;;;;;;5096693;28;20276;-59
2023/03/15 10:42:40;;;;;;;4.25;1.25;;;;;;;;;;5097564;28;20243;-59
2023/03/15 10:45:19;;;;;;;3.10;1.25;;;;;;;;;;5097061;28;20580;-59
2023/03/15 10:47:46;;;;;;;1.75;1.05;;;;;;;;;;5097035;28;20432;-59
2023/03/15 10:50:17;;;;;;;4.32;2.05;;;;;;;;;;5097001;28;20452;-59
2023/03/15 10:52:45;;;;;;;5.22;1.15;;;;;;;;;;5097955;28;20200;-59
2023/03/15 10:55:12;;;;;;;3.97;1.23;;;;;;;;;;5097044;28;20580;-59
2023/03/15 10:57:39;;;;;;;1.25;1.13;;;;;;;;;;5097882;28;20234;-59
2023/03/15 11:00:18;;;;;;;2.75;1.30;;;;;;;;;;5096547;28;20400;-59
2023/03/15 11:02:50;;;;;;;2.47;0.80;;;;;;;;;;5097265;28;20261;-58
2023/03/15 11:05:17;;;;;;;2.42;0.80;;;;;;;;;;5096183;28;20231;-59
2023/03/15 11:07:53;;;;;;;1.35;0.70;;;;;;;;;;5096893;28;20230;-60
2023/03/15 11:10:21;;;;;;;2.35;1.00;;;;;;;;;;5096029;28;20261;-59
2023/03/15 11:12:47;;;;;;;4.85;0.82;;;;;;;;;;5097507;28;20203;-59
2023/03/15 11:15:14;;;;;;;2.50;1.20;;;;;;;;;;5096365;28;20249;-59
2023/03/15 11:17:43;;;;;;;2.72;0.80;;;;;;;;;;5095684;28;20208;-61
2023/03/15 11:20:20;;;;;;;3.55;1.00;;;;;;;;;;5095970;28;20409;-60
2023/03/15 11:22:46;;;;;;;4.20;1.10;;;;;;;;;;5096537;28;20252;-60
2023/03/15 11:25:13;;;;;;;1.25;1.13;;;;;;;;;;5096668;28;20303;-59
2023/03/15 11:27:42;;;;;;;2.95;0.95;;;;;;;;;;5096121;28;20465;-59
2023/03/15 11:30:13;;;;;;;6.18;1.48;;;;;;;;;;5095573;28;20243;-60
2023/03/15 11:32:39;;;;;;;3.45;1.50;;;;;;;;;;5096375;28;20211;-60
2023/03/15 11:35:07;;;;;;;2.97;0.93;;;;;;;;;;5088656;28;20257;-60
2023/03/15 11:37:39;;;;;;;2.85;1.65;;;;;;;;;;5087196;28;20192;-60
2023/03/15 11:40:10;;;;;;;1.38;0.98;;;;;;;;;;5095350;28;20740;-60
2023/03/15 11:42:40;;;;;;;1.90;1.00;;;;;;;;;;5095345;28;20219;-60
2023/03/15 11:45:12;;;;;;;1.65;0.75;;;;;;;;;;5096137;28;20341;-60
2023/03/15 11:47:42;;;;;;;3.58;0.90;;;;;;;;;;5096038;28;20312;-60
2023/03/15 11:50:11;;;;;;;2.38;1.10;;;;;;;;;;5096291;28;20538;-60
2023/03/15 11:52:40;;;;;;;2.38;0.98;;;;;;;;;;5095615;28;20211;-59
2023/03/15 11:55:06;;;;;;;4.55;1.10;;;;;;;;;;5094883;28;20239;-60
2023/03/15 11:57:40;;;;;;;3.00;1.00;;;;;;;;;;5095895;28;20283;-60
2023/03/15 12:00:46;;;;;;;1.45;1.10;;;;;;;;;;5093409;28;20218;-60
2023/03/15 12:03:34;;;;;;;2.05;0.90;;;;;;;;;;5094991;28;20502;-61
2023/03/15 12:06:01;;;;;;;1.13;0.60;;;;;;;;;;5095091;28;20239;-62
2023/03/15 12:08:41;;;;;;;3.13;0.82;;;;;;;;;;5095182;28;20199;-60
2023/03/15 12:11:10;;;;;;;2.00;0.98;;;;;;;;;;5094438;28;20215;-60
2023/03/15 12:13:36;;;;;;;1.67;0.77;;;;;;;;;;5094641;28;20465;-60
2023/03/15 12:16:05;;;;;;;2.90;0.88;;;;;;;;;;5095311;28;20269;-61
2023/03/15 12:18:32;;;;;;;3.65;0.88;;;;;;;;;;5095207;28;20233;-60
2023/03/15 12:21:07;;;;;;;5.03;1.00;;;;;;;;;;5095546;28;20307;-60
2023/03/15 12:23:37;;;;;;;1.08;0.88;;;;;;;;;;5092258;28;20210;-62
2023/03/15 12:26:09;;;;;;;4.20;1.10;;;;;;;;;;5088607;28;20215;-62
2023/03/15 12:28:36;;;;;;;3.00;0.88;;;;;;;;;;5095459;28;20235;-62
2023/03/15 12:31:04;;;;;;;3.17;0.93;;;;;;;;;;5096363;28;20276;-62
2023/03/15 12:33:31;;;;;;;2.08;1.25;;;;;;;;;;5096807;28;20204;-62
2023/03/15 12:36:01;;;;;;;7.70;1.40;;;;;;;;;;5092565;28;20491;-61
2023/03/15 12:38:31;;;;;;;3.03;1.45;;;;;;;;;;5084252;28;20196;-63
2023/03/15 12:40:58;;;;;;;3.45;1.00;;;;;;;;;;5090347;28;20281;-63
2023/03/15 12:43:45;;;;;;;1.63;1.00;;;;;;;;;;5080825;28;20428;-60
2023/03/15 12:46:26;;;;;;;2.15;1.00;;;;;;;;;;5078848;28;20212;-61
2023/03/15 12:49:06;;;;;;;4.18;0.73;;;;;;;;;;5074875;28;20237;-60
2023/03/15 12:51:42;;;;;;;1.73;1.05;;;;;;;;;;5091945;28;20222;-60
2023/03/15 12:54:13;;;;;;;2.97;0.82;;;;;;;;;;5094859;28;20211;-60
2023/03/15 12:56:44;;;;;;;1.65;0.95;;;;;;;;;;5093995;28;20227;-61
2023/03/15 12:59:20;;;;;;;0.82;0.60;;;;;;;;;;5095338;28;20211;-60
2023/03/15 13:01:47;;;;;;;4.35;0.93;;;;;;;;;;5095208;28;20214;-60
2023/03/15 13:04:14;;;;;;;4.72;0.90;;;;;;;;;;5092138;28;20209;-60
2023/03/15 13:06:56;;;;;;;2.35;0.85;;;;;;;;;;5082282;28;20314;-60
2023/03/15 13:09:32;;;;;;;2.13;0.90;;;;;;;;;;5089917;28;20222;-60
2023/03/15 13:12:01;;;;;;;1.70;0.73;;;;;;;;;;5099301;28;20292;-60
2023/03/15 13:14:32;;;;;;;1.10;0.80;;;;;;;;;;5099157;28;20523;-59
2023/03/15 13:17:02;;;;;;;2.58;0.70;;;;;;;;;;5099748;28;20216;-59
2023/03/15 13:19:32;;;;;;;3.20;1.10;;;;;;;;;;5096179;28;20196;-60
2023/03/15 13:22:07;;;;;;;4.05;1.20;;;;;;;;;;5088819;28;20208;-60
2023/03/15 13:24:39;;;;;;;3.17;1.60;;;;;;;;;;5098603;28;20216;-60
2023/03/15 13:27:10;;;;;;;3.10;1.40;;;;;;;;;;5097807;28;20222;-61
2023/03/15 13:29:36;;;;;;;2.10;1.50;;;;;;;;;;5098693;28;20220;-60
2023/03/15 13:32:11;;;;;;;4.50;1.70;;;;;;;;;;5094875;28;20243;-60
2023/03/15 13:34:38;;;;;;;4.50;1.70;;;;;;;;;;5091094;28;20515;-61
2023/03/15 13:37:11;;;;;;;1.90;1.80;;;;;;;;;;5087780;28;20403;-61
2023/03/15 13:39:37;;;;;;;4.93;1.67;;;;;;;;;;5086280;28;20214;-60
2023/03/15 13:42:04;;;;;;;1.88;1.25;;;;;;;;;;5087344;28;20279;-60
2023/03/15 13:44:31;;;;;;;7.05;1.35;;;;;;;;;;5099421;28;20211;-61
2023/03/15 13:46:58;;;;;;;1.67;1.15;;;;;;;;;;5086457;28;20236;-60
2023/03/15 13:49:24;;;;;;;1.73;1.45;;;;;;;;;;5095711;28;20208;-60
2023/03/15 13:51:53;;;;;;;6.30;1.40;;;;;;;;;;5091080;28;20204;-61
2023/03/15 13:54:20;;;;;;;4.07;1.67;;;;;;;;;;5085024;28;20207;-60
2023/03/15 13:56:55;;;;;;;2.15;1.30;;;;;;;;;;5086339;28;20216;-61
2023/03/15 13:59:22;;;;;;;3.20;1.42;;;;;;;;;;5098366;28;20211;-61
2023/03/15 14:01:52;;;;;;;1.33;1.20;;;;;;;;;;5098790;28;20225;-60
2023/03/15 14:04:19;;;;;;;4.40;1.25;;;;;;;;;;5098989;28;20283;-60
2023/03/15 14:06:45;;;;;;;2.20;1.08;;;;;;;;;;5099303;28;20425;-60
2023/03/15 14:09:17;;;;;;;2.28;1.55;;;;;;;;;;5099047;28;20501;-60
2023/03/15 14:11:44;;;;;;;4.68;1.30;;;;;;;;;;5098199;28;20212;-60
2023/03/15 14:14:28;;;;;;;1.50;1.40;;;;;;;;;;5099333;28;20215;-60
2023/03/15 14:16:56;;;;;;;1.98;1.45;;;;;;;;;;5098362;28;20582;-60
2023/03/15 14:19:23;;;;;;;5.47;1.50;;;;;;;;;;5098629;28;20257;-60
2023/03/15 14:21:52;;;;;;;2.83;1.40;;;;;;;;;;5098509;28;20463;-60
2023/03/15 14:24:22;;;;;;;2.25;1.35;;;;;;;;;;5098704;28;20212;-60
2023/03/15 14:26:50;;;;;;;1.20;1.20;;;;;;;;;;5097495;28;20523;-60
2023/03/15 14:29:18;;;;;;;2.90;1.45;;;;;;;;;;5098881;28;20478;-60
2023/03/15 14:31:47;;;;;;;2.40;1.30;;;;;;;;;;5098040;28;20558;-61
2023/03/15 14:34:32;;;;;;;1.95;1.30;;;;;;;;;;5097962;28;20519;-60
2023/03/15 14:37:00;;;;;;;4.20;1.63;;;;;;;;;;5097477;28;20438;-61
2023/03/15 14:39:29;;;;;;;1.55;1.00;;;;;;;;;;5097768;28;20609;-60
2023/03/15 14:41:56;;;;;;;1.30;1.15;;;;;;;;;;5097710;28;20219;-60
2023/03/15 14:44:22;;;;;;;3.03;1.27;;;;;;;;;;5097211;28;20239;-60
2023/03/15 14:46:48;;;;;;;4.38;1.45;;;;;;;;;;5097680;28;20211;-61
2023/03/15 14:49:19;;;;;;;1.67;1.58;;;;;;;;;;5097063;28;20236;-60